x

Ilm3 - 27 Miles Se Of Wrightsville Beach, Nc (41037) Weather Station

12:08pm - Mon 18th Jun 2018 All times are EDT. -4 hours from GMT.

  • Wind
    20mph, 27mph gusts
  • Sea Temp 81°f
  • Air Temp 80°f
  • Sea Pressure 1019.1mb
  • Ilm3 - 27 Miles Se Of Wrightsville Beach, Nc
  • Ilm3 - 27 Miles Se Of Wrightsville Beach, Nc

More Historic Weather Station data

Upgrade to MSW Pro to gain access to the past 30 days of data for over 8000 Wavebouys and Weather Stations around the globe.

Join

Comparision Forecast

View Surf forecast
   
Mon 06/18 12:08pm 20 27 mph 1019.1mb 81f 80f
11:08am 20 29 mph 1019.3mb 81f 80f
10:08am 20 27 mph 1019.1mb 81f 80f
9:08am 18 25 mph 1019.5mb 81f 80f
8:08am 18 27 mph 1019.4mb 81f 80f
7:08am 20 29 mph 1019.5mb 81f 80f
6:08am 18 25 mph 1019.5mb 81f 80f
5:08am 20 27 mph 1019.3mb 81f 80f
4:08am 22 29 mph 1019.1mb 81f 80f
3:08am 20 29 mph 1019.1mb 81f 80f
2:08am 22 29 mph 1019.5mb 81f 80f
1:08am 20 27 mph 1020.2mb 81f 81f
12:08am 18 27 mph 1020.1mb 81f 81f
Sun 06/17 11:08pm 20 27 mph 1020mb 81f 81f
10:08pm 18 25 mph 1020mb 81f 81f
9:08pm 16 22 mph 1019mb 81f 80f
8:08pm 18 27 mph 1018.7mb 81f 80f
7:08pm 18 25 mph 1019.2mb 81f 80f
6:08pm 16 22 mph 1019.6mb 81f 81f
5:08pm 18 25 mph 1019.6mb 81f 81f
4:08pm 16 22 mph 1020.2mb 81f 81f
3:08pm 13 20 mph 1020.8mb 81f 81f
2:08pm 16 22 mph 1021mb 81f 81f
1:08pm 16 25 mph 1021mb 81f 80f
12:08pm 16 20 mph 1021.4mb 81f 81f
11:08am 16 25 mph 1021.3mb 81f 80f
10:08am 13 20 mph 1021mb 81f 80f
9:08am 13 18 mph 1020.7mb 81f 80f
8:08am 11 16 mph 1020mb 81f 80f
7:08am 11 18 mph 1019.3mb 81f 80f
6:08am 11 18 mph 1019mb 81f 80f
5:08am 13 18 mph 1018.5mb 81f 80f
4:08am 13 18 mph 1018.6mb 81f 80f
3:08am 13 18 mph 1018.9mb 81f 80f
2:08am 13 18 mph 1019.1mb 81f 80f
1:08am 16 20 mph 1019.5mb 81f 80f
12:08am 16 22 mph 1019.6mb 81f 80f
Sat 06/16 11:08pm 13 22 mph 1019.2mb 81f 80f
10:08pm 13 18 mph 1019.4mb 81f 80f
9:08pm 13 20 mph 1018.7mb 81f 80f
8:08pm 11 16 mph 1018.3mb 81f 81f
7:08pm 9 16 mph 1018.2mb 81f 82f
6:08pm 9 16 mph 1017.8mb 81f 82f
5:08pm 11 18 mph 1018mb 81f 82f
4:08pm 11 18 mph 1018.1mb 81f 82f
3:08pm 11 18 mph 1018.5mb 81f 82f
2:08pm 11 18 mph 1018.4mb 81f 81f
1:08pm 13 18 mph 1018.3mb 81f 82f
12:08pm 13 20 mph 1018.4mb 81f 82f
11:08am 16 20 mph 1018.4mb 81f 81f
10:08am 16 22 mph 1017.9mb 81f 80f
9:08am 18 25 mph 1017.8mb 81f 80f
8:08am 16 25 mph 1017.2mb 81f 80f
7:08am 16 22 mph 1016.8mb 81f 80f
6:08am 11 18 mph 1016.3mb 81f 80f
5:08am 11 18 mph 1015.4mb 81f 80f
4:08am 9 16 mph 1015.5mb 81f 80f
3:08am 9 13 mph 1015.8mb 81f 80f
2:08am 9 16 mph 1016mb 81f 80f
1:08am 13 20 mph 1015.8mb 81f 80f
12:08am 13 20 mph 1015.8mb 81f 80f
Fri 06/15 11:08pm 13 20 mph 1015.9mb 81f 80f
10:08pm 16 22 mph 1015.8mb 81f 80f
9:08pm 18 22 mph 1014.9mb 81f 80f
8:08pm 22 29 mph 1015.1mb 81f 80f
7:08pm 11 16 mph 1013.9mb 82f 80f
6:08pm 11 13 mph 1014.2mb 82f 80f
5:08pm 11 16 mph 1013.7mb 82f 79f
4:08pm 13 18 mph 1014.3mb 82f 79f
3:08pm 7 11 mph 1014.2mb 82f 80f
2:08pm 7 11 mph 1014.5mb 82f 80f
1:08pm 9 13 mph 1015.4mb 82f 80f
12:08pm 9 13 mph 1014.7mb 81f 79f
11:08am 7 13 mph 1015.5mb 81f 79f
10:08am 2 9 mph 1015mb 81f 80f
9:08am 4 9 mph 1014.9mb 81f 79f
8:08am 7 13 mph 1014.4mb 81f 79f
7:08am 7 11 mph 1014.2mb 81f 79f
6:08am 9 13 mph 1014.2mb 81f 79f
5:08am 11 16 mph 1013.4mb 81f 80f
4:08am 16 22 mph 1013.6mb 81f 80f
3:08am 11 18 mph 1014.2mb 81f 80f
2:08am 16 22 mph 1014.7mb 81f 80f
1:08am 11 18 mph 1014.6mb 81f 80f
12:08am 13 18 mph 1014.5mb 81f 80f
Thu 06/14 11:08pm 13 20 mph 1014.1mb 81f 80f
10:08pm 18 27 mph 1014.1mb 81f 78f
9:08pm 18 25 mph 1013.9mb 81f 79f
8:08pm 16 25 mph 1013.7mb 81f 79f
7:08pm 18 29 mph 1013.5mb 81f 77f
6:08pm 11 16 mph 1014.1mb 81f 77f